Time;durP1;ratioP1;P1;durP2;ratioP2;P2;SDS_P1;SDS_P2;PMS_P1;PMS_P2;Temp;Humidity;BMP_temperature;BMP_pressure;BME280_temperature;BME280_humidity;BME280_pressure;Samples;Min_cycle;Max_cycle;Signal;HPM_P1;HPM_P2
2021/12/13 00:02:15;;;;;;;;;;;;;;;;;;6020459;23;19902;-92
2021/12/13 00:05:01;;;;;;;;;;;;;;;;;;6062448;23;19921;-96
2021/12/13 00:07:26;;;;;;;;;;;;;;;;;;6008746;23;19957;-96
2021/12/13 00:09:55;;;;;;;;;;;;;;;;;;6034937;23;19942;-96
2021/12/13 00:12:33;;;;;;;;;;;;;;;;;;6029746;23;20254;-96
2021/12/13 00:14:59;;;;;;;;;;;;;;;;;;6000149;23;19925;-96
2021/12/13 00:17:26;;;;;;;;;;;;;;;;;;6033237;23;19918;-96
2021/12/13 00:19:52;;;;;;;;;;;;;;;;;;6007504;23;19925;-96
2021/12/13 00:22:19;;;;;;;;;;;;;;;;;;6009776;23;19918;-96
2021/12/13 00:24:45;;;;;;;;;;;;;;;;;;6003319;23;20418;-96
2021/12/13 00:27:11;;;;;;;;;;;;;;;;;;6001533;23;19917;-96
2021/12/13 00:29:40;;;;;;;;;;;;;;;;;;6000190;23;19922;-96
2021/12/13 00:32:06;;;;;;;;;;;;;;;;;;6004660;23;19972;-96
2021/12/13 00:34:37;;;;;;;;;;;;;;;;;;6005300;23;19925;-96
2021/12/13 00:37:05;;;;;;;;;;;;;;;;;;6039773;23;19925;-96
2021/12/13 00:39:31;;;;;;;;;;;;;;;;;;6053283;23;19917;-96
2021/12/13 00:41:57;;;;;;;;;;;;;;;;;;6056741;23;19941;-96
2021/12/13 00:44:23;;;;;;;;;;;;;;;;;;6045977;23;19913;-96
2021/12/13 00:46:50;;;;;;;;;;;;;;;;;;6039327;23;19917;-96
2021/12/13 00:49:16;;;;;;;;;;;;;;;;;;6039728;23;19918;-96
2021/12/13 00:51:43;;;;;;;;;;;;;;;;;;6038816;23;19964;-96
2021/12/13 00:54:09;;;;;;;;;;;;;;;;;;6040690;23;19918;-96
2021/12/13 00:56:35;;;;;;;;;;;;;;;;;;6040196;23;19925;-96
2021/12/13 00:59:01;;;;;;;;;;;;;;;;;;6039692;23;19921;-96
2021/12/13 01:01:26;;;;;;;;;;;;;;;;;;6044292;23;19917;-96
2021/12/13 01:03:52;;;;;;;;;;;;;;;;;;6043824;23;19980;-96
2021/12/13 01:06:18;;;;;;;;;;;;;;;;;;6044293;23;19917;-96
2021/12/13 01:08:44;;;;;;;;;;;;;;;;;;6044331;23;19968;-94
2021/12/13 01:11:10;;;;;;;;;;;;;;;;;;6044930;23;19921;-95
2021/12/13 01:13:36;;;;;;;;;;;;;;;;;;6045398;23;19924;-95
2021/12/13 01:16:11;;;;;;;;;;;;;;;;;;6044923;23;19921;-94
2021/12/13 01:18:55;;;;;;;;;;;;;;;;;;6045005;23;19917;-94
2021/12/13 01:21:32;;;;;;;;;;;;;;;;;;6044449;23;19917;-94
2021/12/13 01:24:04;;;;;;;;;;;;;;;;;;6044930;23;19964;-94
2021/12/13 01:26:38;;;;;;;;;;;;;;;;;;6044711;23;20353;-95
2021/12/13 01:29:04;;;;;;;;;;;;;;;;;;6068440;23;19917;-94
2021/12/13 01:31:30;;;;;;;;;;;;;;;;;;6068672;23;19984;-95
2021/12/13 01:33:56;;;;;;;;;;;;;;;;;;6044079;23;19925;-95
2021/12/13 01:36:24;;;;;;;;;;;;;;;;;;6069081;23;19948;-94
2021/12/13 01:38:50;;;;;;;;;;;;;;;;;;6044394;23;19921;-94
2021/12/13 01:41:16;;;;;;;;;;;;;;;;;;6044986;23;19919;-93
2021/12/13 01:43:42;;;;;;;;;;;;;;;;;;6044051;23;19981;-93
2021/12/13 01:46:08;;;;;;;;;;;;;;;;;;6044726;23;19917;-94
2021/12/13 01:48:34;;;;;;;;;;;;;;;;;;6044137;23;19914;-94
2021/12/13 01:51:07;;;;;;;;;;;;;;;;;;6043903;23;19921;-95
2021/12/13 01:53:33;;;;;;;;;;;;;;;;;;6044942;23;19917;-94
2021/12/13 01:55:59;;;;;;;;;;;;;;;;;;6044163;23;19925;-94
2021/12/13 02:01:09;;;;;;;;;;;;;;;;;;6067860;23;19944;-95
2021/12/13 02:03:35;;;;;;;;;;;;;;;;;;6044415;23;20397;-95
2021/12/13 02:06:01;;;;;;;;;;;;;;;;;;6043952;23;19924;-95
2021/12/13 02:08:28;;;;;;;;;;;;;;;;;;6068803;23;19917;-96
2021/12/13 02:10:54;;;;;;;;;;;;;;;;;;6043463;23;19920;-96
2021/12/13 02:13:21;;;;;;;;;;;;;;;;;;6044373;23;19925;-95
2021/12/13 02:18:32;;;;;;;;;;;;;;;;;;6068030;23;19917;-95
2021/12/13 02:21:03;;;;;;;;;;;;;;;;;;6044214;23;19952;-96
2021/12/13 02:23:29;;;;;;;;;;;;;;;;;;6045049;23;19917;-96
2021/12/13 02:25:57;;;;;;;;;;;;;;;;;;6044331;23;19917;-96
2021/12/13 02:28:23;;;;;;;;;;;;;;;;;;6068269;23;20345;-96
2021/12/13 02:30:49;;;;;;;;;;;;;;;;;;6043787;23;20003;-95
2021/12/13 02:33:15;;;;;;;;;;;;;;;;;;6044568;23;19945;-96
2021/12/13 02:35:41;;;;;;;;;;;;;;;;;;6044710;23;19917;-96
2021/12/13 02:38:07;;;;;;;;;;;;;;;;;;6045234;23;19913;-96
2021/12/13 02:40:33;;;;;;;;;;;;;;;;;;6046837;23;19984;-95
2021/12/13 02:42:58;;;;;;;;;;;;;;;;;;6051099;23;19917;-96
2021/12/13 02:45:26;;;;;;;;;;;;;;;;;;6051476;23;19913;-96
2021/12/13 02:47:51;;;;;;;;;;;;;;;;;;6051608;23;19921;-96
2021/12/13 02:50:17;;;;;;;;;;;;;;;;;;6049733;23;20269;-96
2021/12/13 02:52:43;;;;;;;;;;;;;;;;;;6046967;23;20325;-95
2021/12/13 02:55:09;;;;;;;;;;;;;;;;;;6050656;23;19921;-96
2021/12/13 02:57:35;;;;;;;;;;;;;;;;;;6045276;23;19996;-96
2021/12/13 03:00:01;;;;;;;;;;;;;;;;;;6044607;23;19921;-95
2021/12/13 03:02:27;;;;;;;;;;;;;;;;;;6048004;23;19921;-96
2021/12/13 03:04:56;;;;;;;;;;;;;;;;;;6049415;23;19924;-95
2021/12/13 03:07:22;;;;;;;;;;;;;;;;;;6048972;23;20255;-96
2021/12/13 03:09:48;;;;;;;;;;;;;;;;;;6049211;23;19913;-96
2021/12/13 03:12:14;;;;;;;;;;;;;;;;;;6046406;23;19920;-96
2021/12/13 03:14:40;;;;;;;;;;;;;;;;;;6044766;23;19921;-95
2021/12/13 03:17:06;;;;;;;;;;;;;;;;;;6044096;23;19917;-95
2021/12/13 03:19:32;;;;;;;;;;;;;;;;;;6044077;23;19918;-96
2021/12/13 03:21:58;;;;;;;;;;;;;;;;;;6043861;23;19917;-95
2021/12/13 03:24:24;;;;;;;;;;;;;;;;;;6041705;23;20281;-95
2021/12/13 03:26:50;;;;;;;;;;;;;;;;;;6044521;23;19925;-96
2021/12/13 03:29:16;;;;;;;;;;;;;;;;;;6043402;23;19924;-96
2021/12/13 03:31:42;;;;;;;;;;;;;;;;;;6044776;23;19917;-96
2021/12/13 03:34:08;;;;;;;;;;;;;;;;;;6044696;23;19921;-95
2021/12/13 03:36:34;;;;;;;;;;;;;;;;;;6045752;23;19996;-96
2021/12/13 03:39:00;;;;;;;;;;;;;;;;;;6046696;23;20036;-96
2021/12/13 03:41:26;;;;;;;;;;;;;;;;;;6046497;23;19961;-96
2021/12/13 03:43:52;;;;;;;;;;;;;;;;;;6046925;23;19959;-96
2021/12/13 03:46:17;;;;;;;;;;;;;;;;;;6045657;23;19948;-96
2021/12/13 03:48:43;;;;;;;;;;;;;;;;;;6049580;23;20325;-96
2021/12/13 03:51:09;;;;;;;;;;;;;;;;;;6046802;23;19988;-96
2021/12/13 03:53:35;;;;;;;;;;;;;;;;;;6046567;23;19956;-96
2021/12/13 03:56:02;;;;;;;;;;;;;;;;;;6045785;23;19921;-96
2021/12/13 03:58:28;;;;;;;;;;;;;;;;;;6046611;23;19924;-96
2021/12/13 04:00:54;;;;;;;;;;;;;;;;;;6045389;23;19948;-96
2021/12/13 04:03:20;;;;;;;;;;;;;;;;;;6045332;23;19925;-96
2021/12/13 04:05:46;;;;;;;;;;;;;;;;;;6045770;23;20052;-96
2021/12/13 04:08:12;;;;;;;;;;;;;;;;;;6046537;23;19917;-96
2021/12/13 04:10:37;;;;;;;;;;;;;;;;;;6045600;23;20016;-96
2021/12/13 04:13:09;;;;;;;;;;;;;;;;;;6045539;23;19917;-96
2021/12/13 04:15:48;;;;;;;;;;;;;;;;;;6046566;23;19990;-96
2021/12/13 04:18:27;;;;;;;;;;;;;;;;;;6048056;23;19965;-96
2021/12/13 04:20:53;;;;;;;;;;;;;;;;;;6047635;23;19921;-96
2021/12/13 04:23:19;;;;;;;;;;;;;;;;;;6048653;23;19940;-96
2021/12/13 04:25:45;;;;;;;;;;;;;;;;;;6046994;23;19992;-96
2021/12/13 04:28:11;;;;;;;;;;;;;;;;;;6047691;23;19917;-96
2021/12/13 04:30:37;;;;;;;;;;;;;;;;;;6047513;23;19960;-96
2021/12/13 04:33:02;;;;;;;;;;;;;;;;;;6049465;23;20004;-96
2021/12/13 04:35:28;;;;;;;;;;;;;;;;;;6048663;23;19976;-95
2021/12/13 04:37:54;;;;;;;;;;;;;;;;;;6045195;23;19948;-96
2021/12/13 04:40:20;;;;;;;;;;;;;;;;;;6046193;23;19917;-96
2021/12/13 04:42:46;;;;;;;;;;;;;;;;;;6046912;23;19924;-96
2021/12/13 04:45:12;;;;;;;;;;;;;;;;;;6053188;23;19992;-96
2021/12/13 04:47:38;;;;;;;;;;;;;;;;;;6057669;23;19917;-96
2021/12/13 04:50:04;;;;;;;;;;;;;;;;;;6061821;23;19925;-96
2021/12/13 04:52:30;;;;;;;;;;;;;;;;;;6058420;23;19921;-96
2021/12/13 04:54:56;;;;;;;;;;;;;;;;;;6060159;23;19996;-96
2021/12/13 04:57:22;;;;;;;;;;;;;;;;;;6062520;23;19969;-96
2021/12/13 04:59:48;;;;;;;;;;;;;;;;;;6063505;23;19917;-96
2021/12/13 05:02:14;;;;;;;;;;;;;;;;;;6062295;23;19917;-96
2021/12/13 05:04:40;;;;;;;;;;;;;;;;;;6092654;23;19944;-96
2021/12/13 05:07:06;;;;;;;;;;;;;;;;;;6068208;23;19917;-96
2021/12/13 05:09:51;;;;;;;;;;;;;;;;;;6089494;23;19961;-96
2021/12/13 05:12:17;;;;;;;;;;;;;;;;;;6063135;23;19917;-96
2021/12/13 05:14:43;;;;;;;;;;;;;;;;;;6085374;23;19917;-96
2021/12/13 05:17:09;;;;;;;;;;;;;;;;;;6065376;23;19917;-96
2021/12/13 05:19:34;;;;;;;;;;;;;;;;;;6061120;23;19917;-96
2021/12/13 05:22:01;;;;;;;;;;;;;;;;;;6058852;23;20569;-96
2021/12/13 05:24:27;;;;;;;;;;;;;;;;;;6090510;23;19962;-96
2021/12/13 05:26:55;;;;;;;;;;;;;;;;;;6070081;23;19901;-96
2021/12/13 05:29:42;;;;;;;;;;;;;;;;;;6103706;23;19915;-96
2021/12/13 05:32:14;;;;;;;;;;;;;;;;;;6094423;23;19992;-96
2021/12/13 05:34:40;;;;;;;;;;;;;;;;;;6094346;23;19913;-96
2021/12/13 05:40:11;;;;;;;;;;;;;;;;;;6116590;23;19916;-96
2021/12/13 05:43:06;;;;;;;;;;;;;;;;;;6090830;23;19931;-96
2021/12/13 05:45:35;;;;;;;;;;;;;;;;;;6069710;23;19913;-96
2021/12/13 05:48:16;;;;;;;;;;;;;;;;;;6027242;23;19918;-96
2021/12/13 05:50:42;;;;;;;;;;;;;;;;;;5990923;23;19953;-95
2021/12/13 05:53:08;;;;;;;;;;;;;;;;;;5991373;23;19918;-96
2021/12/13 05:55:35;;;;;;;;;;;;;;;;;;6009162;23;19925;-96
2021/12/13 05:58:01;;;;;;;;;;;;;;;;;;6008312;23;19922;-96
2021/12/13 06:00:27;;;;;;;;;;;;;;;;;;5995255;23;19962;-96
2021/12/13 06:02:53;;;;;;;;;;;;;;;;;;5987546;23;19960;-96
2021/12/13 06:05:19;;;;;;;;;;;;;;;;;;5991530;23;19957;-96
2021/12/13 06:07:45;;;;;;;;;;;;;;;;;;5998282;23;19918;-96
2021/12/13 06:10:13;;;;;;;;;;;;;;;;;;5999019;23;19918;-96
2021/12/13 06:12:40;;;;;;;;;;;;;;;;;;5991371;23;19954;-95
2021/12/13 06:15:06;;;;;;;;;;;;;;;;;;5989986;23;19965;-96
2021/12/13 06:17:31;;;;;;;;;;;;;;;;;;5995639;23;19941;-96
2021/12/13 06:19:57;;;;;;;;;;;;;;;;;;6000941;23;19958;-96
2021/12/13 06:22:23;;;;;;;;;;;;;;;;;;5991694;23;19918;-96
2021/12/13 06:24:49;;;;;;;;;;;;;;;;;;5999850;23;19971;-96
2021/12/13 06:27:15;;;;;;;;;;;;;;;;;;6051575;23;20052;-96
2021/12/13 06:29:44;;;;;;;;;;;;;;;;;;6082607;23;19948;-96
2021/12/13 06:32:10;;;;;;;;;;;;;;;;;;6046992;23;20341;-96
2021/12/13 06:34:36;;;;;;;;;;;;;;;;;;6052194;23;19917;-96
2021/12/13 06:37:02;;;;;;;;;;;;;;;;;;6055581;23;19917;-96
2021/12/13 06:39:28;;;;;;;;;;;;;;;;;;6065399;23;19909;-96
2021/12/13 06:41:54;;;;;;;;;;;;;;;;;;6064209;23;19952;-96
2021/12/13 06:44:21;;;;;;;;;;;;;;;;;;6063018;23;19920;-96
2021/12/13 06:46:53;;;;;;;;;;;;;;;;;;6032844;23;19922;-96
2021/12/13 06:49:27;;;;;;;;;;;;;;;;;;6000729;23;19920;-96
2021/12/13 06:51:53;;;;;;;;;;;;;;;;;;6006705;23;19921;-96
2021/12/13 06:54:20;;;;;;;;;;;;;;;;;;6007257;23;19938;-96
2021/12/13 06:56:47;;;;;;;;;;;;;;;;;;6009800;23;19918;-96
2021/12/13 06:59:24;;;;;;;;;;;;;;;;;;6028582;23;19941;-96
2021/12/13 07:01:55;;;;;;;;;;;;;;;;;;6026893;23;19970;-96
2021/12/13 07:04:23;;;;;;;;;;;;;;;;;;6036960;23;19947;-96
2021/12/13 07:06:49;;;;;;;;;;;;;;;;;;6037755;23;19918;-96
2021/12/13 07:09:54;;;;;;;;;;;;;;;;;;6029273;23;19973;-96
2021/12/13 07:12:20;;;;;;;;;;;;;;;;;;5999532;23;19922;-96
2021/12/13 07:14:51;;;;;;;;;;;;;;;;;;6002772;23;19948;-96
2021/12/13 07:17:20;;;;;;;;;;;;;;;;;;6035007;23;19922;-96
2021/12/13 07:19:47;;;;;;;;;;;;;;;;;;6007705;23;19914;-96
2021/12/13 07:22:29;;;;;;;;;;;;;;;;;;6008450;23;19922;-96
2021/12/13 07:24:55;;;;;;;;;;;;;;;;;;6004447;23;19981;-96
2021/12/13 07:27:43;;;;;;;;;;;;;;;;;;6035054;23;19909;-85
2021/12/13 07:30:25;;;;;;;;;;;;;;;;;;6011431;23;19918;-96
2021/12/13 07:32:53;;;;;;;;;;;;;;;;;;6013855;23;19909;-80
2021/12/13 07:35:20;;;;;;;;;;;;;;;;;;6034703;23;19902;-79
2021/12/13 07:37:46;;;;;;;;;;;;;;;;;;6015472;23;19925;-91
2021/12/13 07:40:12;;;;;;;;;;;;;;;;;;6015334;23;19926;-81
2021/12/13 07:42:38;;;;;;;;;;;;;;;;;;6015819;23;19902;-80
2021/12/13 07:58:09;;;;;;;;;;;;;;;;;;6118759;23;19921;-96
2021/12/13 08:00:35;;;;;;;;;;;;;;;;;;6091261;23;19901;-96
2021/12/13 08:03:01;;;;;;;;;;;;;;;;;;6044473;23;19921;-96
2021/12/13 08:05:27;;;;;;;;;;;;;;;;;;6068262;23;19988;-95
2021/12/13 08:07:54;;;;;;;;;;;;;;;;;;6044935;23;19921;-95
2021/12/13 08:10:20;;;;;;;;;;;;;;;;;;6048619;23;19925;-95
2021/12/13 08:12:46;;;;;;;;;;;;;;;;;;6046184;23;20623;-96
2021/12/13 08:15:11;;;;;;;;;;;;;;;;;;6052260;23;19964;-96
2021/12/13 08:17:37;;;;;;;;;;;;;;;;;;6044357;23;19921;-93
2021/12/13 08:20:03;;;;;;;;;;;;;;;;;;6066086;23;19928;-94
2021/12/13 08:22:30;;;;;;;;;;;;;;;;;;6043417;23;20378;-93
2021/12/13 08:24:56;;;;;;;;;;;;;;;;;;6043165;23;20454;-95
2021/12/13 08:27:22;;;;;;;;;;;;;;;;;;6067721;23;19924;-96
2021/12/13 08:29:47;;;;;;;;;;;;;;;;;;6046228;23;19961;-96
2021/12/13 08:32:13;;;;;;;;;;;;;;;;;;6072898;23;19979;-96
2021/12/13 08:34:39;;;;;;;;;;;;;;;;;;6045060;23;19995;-93
2021/12/13 08:37:05;;;;;;;;;;;;;;;;;;6074777;23;19917;-96
2021/12/13 08:39:31;;;;;;;;;;;;;;;;;;6045508;23;19924;-94
2021/12/13 08:41:57;;;;;;;;;;;;;;;;;;6067336;23;19917;-92
2021/12/13 08:44:23;;;;;;;;;;;;;;;;;;6067406;23;19988;-96
2021/12/13 08:46:49;;;;;;;;;;;;;;;;;;6066929;23;20360;-94
2021/12/13 08:49:15;;;;;;;;;;;;;;;;;;6066622;23;19952;-95
2021/12/13 08:51:41;;;;;;;;;;;;;;;;;;6066965;23;20049;-95
2021/12/13 08:54:07;;;;;;;;;;;;;;;;;;6066443;23;19928;-94
2021/12/13 08:56:33;;;;;;;;;;;;;;;;;;6043111;23;20266;-93
2021/12/13 08:58:59;;;;;;;;;;;;;;;;;;6042656;23;19917;-92
2021/12/13 09:01:26;;;;;;;;;;;;;;;;;;6043102;23;19964;-93
2021/12/13 09:03:52;;;;;;;;;;;;;;;;;;6040336;23;20009;-93
2021/12/13 09:06:18;;;;;;;;;;;;;;;;;;6042609;23;19960;-90
2021/12/13 09:08:44;;;;;;;;;;;;;;;;;;6043508;23;19917;-89
2021/12/13 09:11:10;;;;;;;;;;;;;;;;;;6042625;23;20249;-88
2021/12/13 09:13:36;;;;;;;;;;;;;;;;;;6042518;23;19996;-89
2021/12/13 09:16:02;;;;;;;;;;;;;;;;;;6042718;23;19948;-88
2021/12/13 09:18:28;;;;;;;;;;;;;;;;;;6041312;23;20363;-89
2021/12/13 09:20:54;;;;;;;;;;;;;;;;;;6043006;23;19917;-88
2021/12/13 09:23:20;;;;;;;;;;;;;;;;;;6043126;23;19956;-88
2021/12/13 09:25:46;;;;;;;;;;;;;;;;;;6043429;23;20341;-87
2021/12/13 09:28:12;;;;;;;;;;;;;;;;;;6044740;23;20032;-88
2021/12/13 09:30:38;;;;;;;;;;;;;;;;;;6044676;23;19921;-88
2021/12/13 09:33:04;;;;;;;;;;;;;;;;;;6044393;23;19921;-91
2021/12/13 09:35:30;;;;;;;;;;;;;;;;;;6068613;23;20249;-90
2021/12/13 09:37:56;;;;;;;;;;;;;;;;;;6044882;23;19968;-90
2021/12/13 09:40:21;;;;;;;;;;;;;;;;;;6045048;23;19940;-89
2021/12/13 09:42:47;;;;;;;;;;;;;;;;;;6068406;23;19917;-92
2021/12/13 09:45:14;;;;;;;;;;;;;;;;;;6044564;23;19917;-93
2021/12/13 09:47:40;;;;;;;;;;;;;;;;;;6068893;23;19923;-94
2021/12/13 09:50:06;;;;;;;;;;;;;;;;;;6069127;23;20329;-93
2021/12/13 09:52:32;;;;;;;;;;;;;;;;;;6045162;23;19917;-93
2021/12/13 09:54:58;;;;;;;;;;;;;;;;;;6044609;23;20257;-94
2021/12/13 09:57:24;;;;;;;;;;;;;;;;;;6042108;23;19924;-94
2021/12/13 09:59:49;;;;;;;;;;;;;;;;;;6066934;23;20262;-93
2021/12/13 10:02:16;;;;;;;;;;;;;;;;;;6044867;23;19917;-93
2021/12/13 10:04:42;;;;;;;;;;;;;;;;;;6068544;23;19917;-93
2021/12/13 10:07:07;;;;;;;;;;;;;;;;;;6068829;23;20354;-93
2021/12/13 10:09:34;;;;;;;;;;;;;;;;;;6068854;23;19951;-93
2021/12/13 10:12:01;;;;;;;;;;;;;;;;;;6044885;23;19917;-93
2021/12/13 10:14:27;;;;;;;;;;;;;;;;;;6068962;23;19954;-93
2021/12/13 10:16:54;;;;;;;;;;;;;;;;;;6044519;23;19917;-94
2021/12/13 10:19:20;;;;;;;;;;;;;;;;;;6045204;23;19917;-94
2021/12/13 10:21:46;;;;;;;;;;;;;;;;;;6044652;23;19961;-94
2021/12/13 10:24:12;;;;;;;;;;;;;;;;;;6068780;23;19924;-94
2021/12/13 10:26:38;;;;;;;;;;;;;;;;;;6045026;23;19917;-94
2021/12/13 10:29:04;;;;;;;;;;;;;;;;;;6044432;23;19913;-95
2021/12/13 10:31:30;;;;;;;;;;;;;;;;;;6044049;23;19918;-95
2021/12/13 10:33:56;;;;;;;;;;;;;;;;;;6068149;23;19992;-93
2021/12/13 10:36:22;;;;;;;;;;;;;;;;;;6044725;23;19917;-96
2021/12/13 10:38:48;;;;;;;;;;;;;;;;;;6044178;23;19972;-94
2021/12/13 10:41:15;;;;;;;;;;;;;;;;;;6020458;23;19996;-95
2021/12/13 10:43:41;;;;;;;;;;;;;;;;;;6044901;23;19917;-94
2021/12/13 10:46:11;;;;;;;;;;;;;;;;;;6043833;23;20261;-94
2021/12/13 10:48:44;;;;;;;;;;;;;;;;;;6044508;23;19988;-95
2021/12/13 10:51:10;;;;;;;;;;;;;;;;;;6044482;23;19917;-89
2021/12/13 10:53:36;;;;;;;;;;;;;;;;;;6043971;23;19917;-88
2021/12/13 10:56:02;;;;;;;;;;;;;;;;;;6043006;23;20630;-90
2021/12/13 10:58:29;;;;;;;;;;;;;;;;;;6044182;23;19917;-93
2021/12/13 11:00:54;;;;;;;;;;;;;;;;;;6043114;23;19928;-92
2021/12/13 11:03:20;;;;;;;;;;;;;;;;;;6068065;23;19939;-93
2021/12/13 11:05:47;;;;;;;;;;;;;;;;;;6043685;23;19972;-89
2021/12/13 11:08:13;;;;;;;;;;;;;;;;;;6044795;23;20330;-89
2021/12/13 11:10:39;;;;;;;;;;;;;;;;;;6043904;23;19921;-88
2021/12/13 11:13:05;;;;;;;;;;;;;;;;;;6067746;23;19927;-88
2021/12/13 11:15:31;;;;;;;;;;;;;;;;;;6043212;23;19921;-90
2021/12/13 11:17:57;;;;;;;;;;;;;;;;;;6042724;23;19961;-88
2021/12/13 11:20:23;;;;;;;;;;;;;;;;;;6043391;23;19951;-89
2021/12/13 11:22:48;;;;;;;;;;;;;;;;;;6038640;23;19918;-89
2021/12/13 11:25:14;;;;;;;;;;;;;;;;;;6041548;23;19928;-88
2021/12/13 11:27:40;;;;;;;;;;;;;;;;;;6042911;23;19968;-88
2021/12/13 11:30:06;;;;;;;;;;;;;;;;;;6042830;23;19919;-88
2021/12/13 11:32:32;;;;;;;;;;;;;;;;;;6043195;23;20358;-89
2021/12/13 11:34:58;;;;;;;;;;;;;;;;;;6043661;23;20289;-89
2021/12/13 11:37:24;;;;;;;;;;;;;;;;;;6043379;23;19913;-88
2021/12/13 11:39:50;;;;;;;;;;;;;;;;;;6043178;23;19917;-88
2021/12/13 11:42:16;;;;;;;;;;;;;;;;;;6043455;23;19913;-88
2021/12/13 11:44:42;;;;;;;;;;;;;;;;;;6042328;23;20302;-88
2021/12/13 11:47:08;;;;;;;;;;;;;;;;;;6043355;23;19973;-88
2021/12/13 11:49:34;;;;;;;;;;;;;;;;;;6066672;23;19914;-89
2021/12/13 11:51:59;;;;;;;;;;;;;;;;;;6042503;23;20254;-88
2021/12/13 11:54:25;;;;;;;;;;;;;;;;;;6042663;23;19917;-89
2021/12/13 11:56:51;;;;;;;;;;;;;;;;;;6042374;23;19917;-89
2021/12/13 11:59:17;;;;;;;;;;;;;;;;;;6043095;23;19952;-89
2021/12/13 12:01:46;;;;;;;;;;;;;;;;;;6044065;23;19913;-89
2021/12/13 12:04:12;;;;;;;;;;;;;;;;;;6042785;23;19936;-89
2021/12/13 12:06:38;;;;;;;;;;;;;;;;;;6043607;23;19936;-88
2021/12/13 12:09:04;;;;;;;;;;;;;;;;;;6066575;23;19917;-89
2021/12/13 12:11:30;;;;;;;;;;;;;;;;;;6066978;23;19925;-89
2021/12/13 12:14:03;;;;;;;;;;;;;;;;;;6040125;23;19917;-90
2021/12/13 12:16:29;;;;;;;;;;;;;;;;;;6043277;23;19917;-90
2021/12/13 12:18:56;;;;;;;;;;;;;;;;;;6043061;23;19952;-89
2021/12/13 12:21:22;;;;;;;;;;;;;;;;;;6067562;23;19924;-89
2021/12/13 12:23:49;;;;;;;;;;;;;;;;;;6042123;23;19917;-87
2021/12/13 12:26:15;;;;;;;;;;;;;;;;;;6043378;23;20265;-89
2021/12/13 12:28:41;;;;;;;;;;;;;;;;;;6042807;23;19917;-90
2021/12/13 12:31:07;;;;;;;;;;;;;;;;;;6067324;23;19925;-89
2021/12/13 12:33:33;;;;;;;;;;;;;;;;;;6043003;23;19921;-89
2021/12/13 12:35:58;;;;;;;;;;;;;;;;;;6042997;23;20580;-89
2021/12/13 12:38:24;;;;;;;;;;;;;;;;;;6043275;23;19967;-90
2021/12/13 12:40:50;;;;;;;;;;;;;;;;;;6043600;23;20349;-90
2021/12/13 12:43:16;;;;;;;;;;;;;;;;;;6043845;23;19976;-90
2021/12/13 12:45:42;;;;;;;;;;;;;;;;;;6043311;23;20313;-89
2021/12/13 12:48:09;;;;;;;;;;;;;;;;;;6043697;23;20338;-90
2021/12/13 12:50:35;;;;;;;;;;;;;;;;;;6067963;23;19913;-91
2021/12/13 12:53:01;;;;;;;;;;;;;;;;;;6066509;23;20020;-91
2021/12/13 12:55:27;;;;;;;;;;;;;;;;;;6067285;23;19926;-90
2021/12/13 12:57:53;;;;;;;;;;;;;;;;;;6042864;23;20257;-90
2021/12/13 13:00:19;;;;;;;;;;;;;;;;;;6043985;23;19917;-91
2021/12/13 13:02:45;;;;;;;;;;;;;;;;;;6044331;23;20226;-91
2021/12/13 13:05:12;;;;;;;;;;;;;;;;;;6069981;23;19917;-91
2021/12/13 13:07:38;;;;;;;;;;;;;;;;;;6045514;23;19913;-91
2021/12/13 13:10:04;;;;;;;;;;;;;;;;;;6044364;23;19928;-91
2021/12/13 13:12:30;;;;;;;;;;;;;;;;;;6045199;23;19952;-91
2021/12/13 13:14:56;;;;;;;;;;;;;;;;;;6045232;23;20013;-90
2021/12/13 13:17:22;;;;;;;;;;;;;;;;;;6044999;23;19956;-88
2021/12/13 13:19:48;;;;;;;;;;;;;;;;;;6044780;23;19917;-89
2021/12/13 13:22:14;;;;;;;;;;;;;;;;;;6044837;23;19923;-88
2021/12/13 13:24:39;;;;;;;;;;;;;;;;;;6044378;23;20348;-89
2021/12/13 13:27:05;;;;;;;;;;;;;;;;;;6044656;23;19996;-92
2021/12/13 13:29:31;;;;;;;;;;;;;;;;;;6045130;23;20265;-92
2021/12/13 13:31:59;;;;;;;;;;;;;;;;;;6044859;23;19923;-91
2021/12/13 13:34:25;;;;;;;;;;;;;;;;;;6044641;23;19921;-92
2021/12/13 13:36:50;;;;;;;;;;;;;;;;;;6045076;23;20342;-91
2021/12/13 13:39:16;;;;;;;;;;;;;;;;;;6044488;23;20323;-92
2021/12/13 13:41:42;;;;;;;;;;;;;;;;;;6044601;23;19962;-92
2021/12/13 13:44:08;;;;;;;;;;;;;;;;;;6045251;23;20040;-91
2021/12/13 13:46:34;;;;;;;;;;;;;;;;;;6044898;23;19917;-90
2021/12/13 13:49:02;;;;;;;;;;;;;;;;;;6068107;23;20393;-88
2021/12/13 13:51:28;;;;;;;;;;;;;;;;;;6044318;23;19988;-92
2021/12/13 13:53:55;;;;;;;;;;;;;;;;;;6066745;23;19956;-92
2021/12/13 13:56:21;;;;;;;;;;;;;;;;;;6044362;23;19917;-86
2021/12/13 13:58:47;;;;;;;;;;;;;;;;;;6042647;23;19924;-86
2021/12/13 14:01:13;;;;;;;;;;;;;;;;;;6043697;23;19921;-86
2021/12/13 14:03:39;;;;;;;;;;;;;;;;;;6066902;23;19924;-86
2021/12/13 14:06:05;;;;;;;;;;;;;;;;;;6043293;23;20243;-86
2021/12/13 14:08:31;;;;;;;;;;;;;;;;;;6043056;23;19973;-86
2021/12/13 14:10:59;;;;;;;;;;;;;;;;;;6066710;23;19996;-86
2021/12/13 14:13:25;;;;;;;;;;;;;;;;;;6043536;23;20312;-90
2021/12/13 14:15:52;;;;;;;;;;;;;;;;;;6048031;23;19967;-96
2021/12/13 14:18:17;;;;;;;;;;;;;;;;;;6046220;23;19917;-94
2021/12/13 14:20:43;;;;;;;;;;;;;;;;;;6044741;23;19917;-95
2021/12/13 14:23:09;;;;;;;;;;;;;;;;;;6043694;23;19928;-94
2021/12/13 14:25:35;;;;;;;;;;;;;;;;;;6044936;23;19980;-94
2021/12/13 14:28:01;;;;;;;;;;;;;;;;;;6044488;23;20353;-93
2021/12/13 14:30:28;;;;;;;;;;;;;;;;;;6044476;23;19924;-95
2021/12/13 14:32:54;;;;;;;;;;;;;;;;;;6044385;23;19921;-93
2021/12/13 14:35:20;;;;;;;;;;;;;;;;;;6068703;23;20364;-94
2021/12/13 14:37:46;;;;;;;;;;;;;;;;;;6044155;23;19918;-93
2021/12/13 14:40:12;;;;;;;;;;;;;;;;;;6044762;23;19917;-94
2021/12/13 14:42:37;;;;;;;;;;;;;;;;;;6045000;23;19964;-95
2021/12/13 14:45:03;;;;;;;;;;;;;;;;;;6068359;23;19988;-94
2021/12/13 14:47:29;;;;;;;;;;;;;;;;;;6044746;23;19917;-94
2021/12/13 14:49:55;;;;;;;;;;;;;;;;;;6044699;23;19952;-94
2021/12/13 14:52:21;;;;;;;;;;;;;;;;;;6067655;23;19917;-94
2021/12/13 14:54:47;;;;;;;;;;;;;;;;;;6068230;23;19924;-93
2021/12/13 14:57:13;;;;;;;;;;;;;;;;;;6068439;23;19983;-94
2021/12/13 14:59:39;;;;;;;;;;;;;;;;;;6044026;23;19924;-94
2021/12/13 15:02:04;;;;;;;;;;;;;;;;;;6044343;23;19917;-94
2021/12/13 15:04:32;;;;;;;;;;;;;;;;;;6044594;23;19917;-94
2021/12/13 15:06:58;;;;;;;;;;;;;;;;;;6068310;23;19945;-94
2021/12/13 15:09:24;;;;;;;;;;;;;;;;;;6068622;23;19917;-94
2021/12/13 15:11:50;;;;;;;;;;;;;;;;;;6068430;23;19917;-92
2021/12/13 15:14:16;;;;;;;;;;;;;;;;;;6044098;23;20253;-94
2021/12/13 15:16:43;;;;;;;;;;;;;;;;;;6044586;23;20352;-93
2021/12/13 15:19:09;;;;;;;;;;;;;;;;;;6044489;23;19988;-93
2021/12/13 15:21:35;;;;;;;;;;;;;;;;;;6044534;23;20419;-94
2021/12/13 15:24:01;;;;;;;;;;;;;;;;;;6043518;23;19921;-94
2021/12/13 15:26:28;;;;;;;;;;;;;;;;;;6044571;23;19976;-89
2021/12/13 15:28:54;;;;;;;;;;;;;;;;;;6043961;23;19939;-93
2021/12/13 15:31:21;;;;;;;;;;;;;;;;;;6044278;23;20342;-89
2021/12/13 15:33:47;;;;;;;;;;;;;;;;;;6067321;23;19917;-91
2021/12/13 15:36:13;;;;;;;;;;;;;;;;;;6043688;23;19921;-92
2021/12/13 15:38:39;;;;;;;;;;;;;;;;;;6068240;23;19917;-91
2021/12/13 15:41:07;;;;;;;;;;;;;;;;;;6044038;23;19992;-91
2021/12/13 15:43:33;;;;;;;;;;;;;;;;;;6067449;23;19928;-91
2021/12/13 15:45:59;;;;;;;;;;;;;;;;;;6043615;23;19917;-87
2021/12/13 15:51:10;;;;;;;;;;;;;;;;;;6067033;23;19924;-89
2021/12/13 15:53:36;;;;;;;;;;;;;;;;;;6043387;23;20329;-88
2021/12/13 15:56:02;;;;;;;;;;;;;;;;;;6043649;23;20246;-91
2021/12/13 15:58:28;;;;;;;;;;;;;;;;;;6043560;23;20227;-88
2021/12/13 16:00:54;;;;;;;;;;;;;;;;;;6043561;23;19972;-88
2021/12/13 16:03:20;;;;;;;;;;;;;;;;;;6043297;23;19917;-88
2021/12/13 16:05:45;;;;;;;;;;;;;;;;;;6066878;23;19917;-89
2021/12/13 16:08:11;;;;;;;;;;;;;;;;;;6067265;23;19917;-88
2021/12/13 16:10:37;;;;;;;;;;;;;;;;;;6043299;23;19936;-88
2021/12/13 16:13:03;;;;;;;;;;;;;;;;;;6042799;23;19921;-87
2021/12/13 16:15:29;;;;;;;;;;;;;;;;;;6043490;23;19917;-88
2021/12/13 16:17:55;;;;;;;;;;;;;;;;;;6042688;23;19946;-88
2021/12/13 16:20:21;;;;;;;;;;;;;;;;;;6043028;23;19952;-87
2021/12/13 16:22:47;;;;;;;;;;;;;;;;;;6042571;23;20385;-88
2021/12/13 16:25:13;;;;;;;;;;;;;;;;;;6043133;23;19921;-88
2021/12/13 16:27:39;;;;;;;;;;;;;;;;;;6043094;23;20238;-87
2021/12/13 16:30:05;;;;;;;;;;;;;;;;;;6042509;23;19936;-88
2021/12/13 16:32:30;;;;;;;;;;;;;;;;;;6043016;23;19918;-88
2021/12/13 16:34:56;;;;;;;;;;;;;;;;;;6065872;23;20357;-88
2021/12/13 16:37:22;;;;;;;;;;;;;;;;;;6043759;23;19920;-87
2021/12/13 16:39:48;;;;;;;;;;;;;;;;;;6044842;23;20344;-88
2021/12/13 16:42:14;;;;;;;;;;;;;;;;;;6069122;23;20230;-87
2021/12/13 16:44:40;;;;;;;;;;;;;;;;;;6068646;23;20007;-88
2021/12/13 16:47:06;;;;;;;;;;;;;;;;;;6045409;23;19988;-88
2021/12/13 16:49:32;;;;;;;;;;;;;;;;;;6068603;23;19913;-89
2021/12/13 16:51:58;;;;;;;;;;;;;;;;;;6068609;23;19921;-88
2021/12/13 16:54:24;;;;;;;;;;;;;;;;;;6044544;23;20333;-88
2021/12/13 16:56:50;;;;;;;;;;;;;;;;;;6044841;23;19917;-88
2021/12/13 16:59:15;;;;;;;;;;;;;;;;;;6044927;23;19956;-88
2021/12/13 17:01:41;;;;;;;;;;;;;;;;;;6044461;23;19995;-88
2021/12/13 17:04:07;;;;;;;;;;;;;;;;;;6044762;23;19927;-87
2021/12/13 17:06:33;;;;;;;;;;;;;;;;;;6069009;23;20333;-89
2021/12/13 17:08:59;;;;;;;;;;;;;;;;;;6068748;23;19977;-89